sensor_id;sensor_type;location;lat;lon;timestamp;pressure;altitude;pressure_sealevel;temperature;humidity
22311;BME280;11323;49.610;11.016;2023-02-01T00:02:45;98508.81;;;11.01;nan
22311;BME280;11323;49.610;11.016;2023-02-01T00:07:47;98497.69;;;10.99;nan
22311;BME280;11323;49.610;11.016;2023-02-01T00:12:48;98500.28;;;10.99;nan
22311;BME280;11323;49.610;11.016;2023-02-01T00:17:53;98507.41;;;10.96;nan
22311;BME280;11323;49.610;11.016;2023-02-01T00:22:53;98498.91;;;10.94;nan
22311;BME280;11323;49.610;11.016;2023-02-01T00:27:54;98500.69;;;10.94;nan
22311;BME280;11323;49.610;11.016;2023-02-01T00:32:56;98504.41;;;10.91;nan
22311;BME280;11323;49.610;11.016;2023-02-01T00:37:57;98494.09;;;10.90;nan
22311;BME280;11323;49.610;11.016;2023-02-01T00:42:59;98490.00;;;10.87;nan
22311;BME280;11323;49.610;11.016;2023-02-01T00:47:59;98478.59;;;10.88;nan
22311;BME280;11323;49.610;11.016;2023-02-01T00:53:00;98484.09;;;10.85;nan
22311;BME280;11323;49.610;11.016;2023-02-01T00:58:00;98478.88;;;10.85;nan
22311;BME280;11323;49.610;11.016;2023-02-01T01:03:01;98464.31;;;10.73;nan
22311;BME280;11323;49.610;11.016;2023-02-01T01:08:01;98491.22;;;10.83;nan
22311;BME280;11323;49.610;11.016;2023-02-01T01:13:02;98491.50;;;10.80;nan
22311;BME280;11323;49.610;11.016;2023-02-01T01:18:02;98489.88;;;10.79;nan
22311;BME280;11323;49.610;11.016;2023-02-01T01:23:04;98489.28;;;10.75;nan
22311;BME280;11323;49.610;11.016;2023-02-01T01:28:05;98503.84;;;10.78;nan
22311;BME280;11323;49.610;11.016;2023-02-01T01:33:05;98476.97;;;10.68;nan
22311;BME280;11323;49.610;11.016;2023-02-01T01:38:06;98495.34;;;10.76;nan
22311;BME280;11323;49.610;11.016;2023-02-01T01:43:14;98495.34;;;10.76;nan
22311;BME280;11323;49.610;11.016;2023-02-01T01:48:27;98478.84;;;10.75;nan
22311;BME280;11323;49.610;11.016;2023-02-01T01:53:47;98458.97;;;10.64;nan
22311;BME280;11323;49.610;11.016;2023-02-01T01:58:50;98481.88;;;10.71;nan
22311;BME280;11323;49.610;11.016;2023-02-01T02:03:51;98462.53;;;10.63;nan
22311;BME280;11323;49.610;11.016;2023-02-01T02:08:52;98468.19;;;10.69;nan
22311;BME280;11323;49.610;11.016;2023-02-01T02:13:54;98464.59;;;10.70;nan
22311;BME280;11323;49.610;11.016;2023-02-01T02:19:09;98456.09;;;10.68;nan
22311;BME280;11323;49.610;11.016;2023-02-01T02:35:42;98447.59;;;10.65;nan
22311;BME280;11323;49.610;11.016;2023-02-01T02:41:19;98445.94;;;10.64;nan
22311;BME280;11323;49.610;11.016;2023-02-01T02:46:44;98449.50;;;10.63;nan
22311;BME280;11323;49.610;11.016;2023-02-01T02:52:10;98439.09;;;10.63;nan
22311;BME280;11323;49.610;11.016;2023-02-01T02:57:37;98411.09;;;10.56;nan
22311;BME280;11323;49.610;11.016;2023-02-01T03:03:00;98414.13;;;10.61;nan
22311;BME280;11323;49.610;11.016;2023-02-01T03:08:27;98408.75;;;10.62;nan
22311;BME280;11323;49.610;11.016;2023-02-01T03:13:44;98409.72;;;10.61;nan
22311;BME280;11323;49.610;11.016;2023-02-01T03:18:56;98411.50;;;10.61;nan
22311;BME280;11323;49.610;11.016;2023-02-01T03:24:02;98422.06;;;10.59;nan
22311;BME280;11323;49.610;11.016;2023-02-01T03:29:09;98415.22;;;10.58;nan
22311;BME280;11323;49.610;11.016;2023-02-01T03:34:16;98405.75;;;10.57;nan
22311;BME280;11323;49.610;11.016;2023-02-01T03:39:21;98417.00;;;10.58;nan
22311;BME280;11323;49.610;11.016;2023-02-01T03:44:26;98420.44;;;10.58;nan
22311;BME280;11323;49.610;11.016;2023-02-01T03:49:41;98399.03;;;10.55;nan
22311;BME280;11323;49.610;11.016;2023-02-01T03:54:44;98401.50;;;10.56;nan
22311;BME280;11323;49.610;11.016;2023-02-01T03:59:46;98389.69;;;10.52;nan
22311;BME280;11323;49.610;11.016;2023-02-01T04:04:46;98386.94;;;10.54;nan
22311;BME280;11323;49.610;11.016;2023-02-01T04:09:50;98381.72;;;10.54;nan
22311;BME280;11323;49.610;11.016;2023-02-01T04:14:50;98385.19;;;10.54;nan
22311;BME280;11323;49.610;11.016;2023-02-01T04:19:50;98388.06;;;10.51;nan
22311;BME280;11323;49.610;11.016;2023-02-01T04:24:51;98372.41;;;10.51;nan
22311;BME280;11323;49.610;11.016;2023-02-01T04:29:51;98379.44;;;10.50;nan
22311;BME280;11323;49.610;11.016;2023-02-01T04:34:52;98374.34;;;10.49;nan
22311;BME280;11323;49.610;11.016;2023-02-01T04:39:52;98371.88;;;10.47;nan
22311;BME280;11323;49.610;11.016;2023-02-01T04:44:52;98377.09;;;10.47;nan
22311;BME280;11323;49.610;11.016;2023-02-01T04:49:53;98385.06;;;10.46;nan
22311;BME280;11323;49.610;11.016;2023-02-01T04:54:53;98375.44;;;10.46;nan
22311;BME280;11323;49.610;11.016;2023-02-01T04:59:57;98376.53;;;10.44;nan
22311;BME280;11323;49.610;11.016;2023-02-01T05:04:57;98374.63;;;10.46;nan
22311;BME280;11323;49.610;11.016;2023-02-01T05:09:58;98377.34;;;10.44;nan
22311;BME280;11323;49.610;11.016;2023-02-01T05:14:58;98374.75;;;10.44;nan
22311;BME280;11323;49.610;11.016;2023-02-01T05:19:58;98374.91;;;10.43;nan
22311;BME280;11323;49.610;11.016;2023-02-01T05:24:59;98379.16;;;10.44;nan
22311;BME280;11323;49.610;11.016;2023-02-01T05:29:59;98374.06;;;10.42;nan
22311;BME280;11323;49.610;11.016;2023-02-01T05:35:00;98373.25;;;10.42;nan
22311;BME280;11323;49.610;11.016;2023-02-01T05:40:00;98367.34;;;10.40;nan
22311;BME280;11323;49.610;11.016;2023-02-01T05:45:01;98351.72;;;10.40;nan
22311;BME280;11323;49.610;11.016;2023-02-01T05:50:02;98349.09;;;10.40;nan
22311;BME280;11323;49.610;11.016;2023-02-01T05:55:03;98348.41;;;10.38;nan
22311;BME280;11323;49.610;11.016;2023-02-01T06:00:04;98341.53;;;10.36;nan
22311;BME280;11323;49.610;11.016;2023-02-01T06:05:12;98342.50;;;10.35;nan
22311;BME280;11323;49.610;11.016;2023-02-01T06:10:13;98332.63;;;10.29;nan
22311;BME280;11323;49.610;11.016;2023-02-01T06:15:14;98340.03;;;10.34;nan
22311;BME280;11323;49.610;11.016;2023-02-01T06:20:18;98345.25;;;10.34;nan
22311;BME280;11323;49.610;11.016;2023-02-01T06:25:18;98339.22;;;10.33;nan
22311;BME280;11323;49.610;11.016;2023-02-01T06:30:19;98348.00;;;10.32;nan
22311;BME280;11323;49.610;11.016;2023-02-01T06:35:20;98343.75;;;10.31;nan
22311;BME280;11323;49.610;11.016;2023-02-01T06:40:20;98345.38;;;10.32;nan
22311;BME280;11323;49.610;11.016;2023-02-01T06:45:21;98346.34;;;10.31;nan
22311;BME280;11323;49.610;11.016;2023-02-01T06:50:21;98321.13;;;10.22;nan
22311;BME280;11323;49.610;11.016;2023-02-01T06:55:21;98344.69;;;10.30;nan
22311;BME280;11323;49.610;11.016;2023-02-01T07:00:22;98323.84;;;10.20;nan
22311;BME280;11323;49.610;11.016;2023-02-01T07:05:23;98347.31;;;10.30;nan
22311;BME280;11323;49.610;11.016;2023-02-01T07:10:23;98344.69;;;10.30;nan
22311;BME280;11323;49.610;11.016;2023-02-01T07:15:24;98343.59;;;10.33;nan
22311;BME280;11323;49.610;11.016;2023-02-01T07:20:24;98341.81;;;10.33;nan
22311;BME280;11323;49.610;11.016;2023-02-01T07:25:25;98351.28;;;10.34;nan
22311;BME280;11323;49.610;11.016;2023-02-01T07:30:25;98351.28;;;10.34;nan
22311;BME280;11323;49.610;11.016;2023-02-01T07:35:29;98352.25;;;10.33;nan
22311;BME280;11323;49.610;11.016;2023-02-01T07:40:30;98333.16;;;10.33;nan
22311;BME280;11323;49.610;11.016;2023-02-01T07:45:30;98332.66;;;10.39;nan
22311;BME280;11323;49.610;11.016;2023-02-01T07:50:31;98334.59;;;10.47;nan
22311;BME280;11323;49.610;11.016;2023-02-01T07:55:31;98329.06;;;10.50;nan
22311;BME280;11323;49.610;11.016;2023-02-01T08:00:32;98311.63;;;10.60;nan
22311;BME280;11323;49.610;11.016;2023-02-01T08:05:55;98328.50;;;10.66;nan
22311;BME280;11323;49.610;11.016;2023-02-01T08:10:59;98334.41;;;10.78;nan
22311;BME280;11323;49.610;11.016;2023-02-01T08:16:03;98324.34;;;10.83;nan
22311;BME280;11323;49.610;11.016;2023-02-01T08:21:07;98332.31;;;10.91;nan
22311;BME280;11323;49.610;11.016;2023-02-01T08:26:17;98342.69;;;11.01;nan
22311;BME280;11323;49.610;11.016;2023-02-01T08:31:18;98356.41;;;11.13;nan
22311;BME280;11323;49.610;11.016;2023-02-01T08:36:21;98346.44;;;11.26;nan
22311;BME280;11323;49.610;11.016;2023-02-01T08:41:24;98357.69;;;11.37;nan
22311;BME280;11323;49.610;11.016;2023-02-01T08:46:25;98367.25;;;11.46;nan
22311;BME280;11323;49.610;11.016;2023-02-01T08:51:25;98369.69;;;11.57;nan
22311;BME280;11323;49.610;11.016;2023-02-01T08:56:26;98363.19;;;11.62;nan
22311;BME280;11323;49.610;11.016;2023-02-01T09:01:26;98358.94;;;11.61;nan
22311;BME280;11323;49.610;11.016;2023-02-01T09:06:26;98361.91;;;11.76;nan
22311;BME280;11323;49.610;11.016;2023-02-01T09:11:27;98373.44;;;11.73;nan
22311;BME280;11323;49.610;11.016;2023-02-01T09:16:27;98389.81;;;11.65;nan
22311;BME280;11323;49.610;11.016;2023-02-01T09:21:28;98405.09;;;11.60;nan
22311;BME280;11323;49.610;11.016;2023-02-01T09:26:29;98413.47;;;11.64;nan
22311;BME280;11323;49.610;11.016;2023-02-01T09:31:30;98414.25;;;11.74;nan
22311;BME280;11323;49.610;11.016;2023-02-01T09:36:30;98424.84;;;11.72;nan
22311;BME280;11323;49.610;11.016;2023-02-01T09:41:42;98425.47;;;11.84;nan
22311;BME280;11323;49.610;11.016;2023-02-01T09:46:46;98433.28;;;11.84;nan
22311;BME280;11323;49.610;11.016;2023-02-01T09:51:49;98422.66;;;11.96;nan
22311;BME280;11323;49.610;11.016;2023-02-01T09:56:57;98444.63;;;12.31;nan
22311;BME280;11323;49.610;11.016;2023-02-01T10:02:01;98452.31;;;12.32;nan
22311;BME280;11323;49.610;11.016;2023-02-01T10:07:12;98440.97;;;12.24;nan
22311;BME280;11323;49.610;11.016;2023-02-01T10:22:50;98442.50;;;12.16;nan
22311;BME280;11323;49.610;11.016;2023-02-01T10:27:54;98445.72;;;12.10;nan
22311;BME280;11323;49.610;11.016;2023-02-01T10:33:07;98459.06;;;12.07;nan
22311;BME280;11323;49.610;11.016;2023-02-01T10:38:27;98447.56;;;12.00;nan
22311;BME280;11323;49.610;11.016;2023-02-01T10:43:28;98454.56;;;11.99;nan
22311;BME280;11323;49.610;11.016;2023-02-01T10:48:29;98456.19;;;12.00;nan
22311;BME280;11323;49.610;11.016;2023-02-01T10:53:42;98451.38;;;11.96;nan
22311;BME280;11323;49.610;11.016;2023-02-01T10:58:47;98450.53;;;11.67;nan
22311;BME280;11323;49.610;11.016;2023-02-01T11:03:56;98429.94;;;11.26;nan
22311;BME280;11323;49.610;11.016;2023-02-01T11:14:18;98415.44;;;11.14;nan
22311;BME280;11323;49.610;11.016;2023-02-01T11:19:19;98403.44;;;11.69;nan
22311;BME280;11323;49.610;11.016;2023-02-01T11:24:26;98404.94;;;12.17;nan
22311;BME280;11323;49.610;11.016;2023-02-01T11:29:39;98395.34;;;12.36;nan
22311;BME280;11323;49.610;11.016;2023-02-01T11:34:45;98407.50;;;12.45;nan
22311;BME280;11323;49.610;11.016;2023-02-01T11:39:57;98397.13;;;12.54;nan
22311;BME280;11323;49.610;11.016;2023-02-01T11:45:18;98401.22;;;12.56;nan
22311;BME280;11323;49.610;11.016;2023-02-01T11:50:25;98383.03;;;12.46;nan
22311;BME280;11323;49.610;11.016;2023-02-01T12:16:57;98366.06;;;12.14;nan
22311;BME280;11323;49.610;11.016;2023-02-01T12:22:21;98362.03;;;12.20;nan
22311;BME280;11323;49.610;11.016;2023-02-01T12:28:01;98352.47;;;12.29;nan
22311;BME280;11323;49.610;11.016;2023-02-01T12:33:15;98348.06;;;12.29;nan
22311;BME280;11323;49.610;11.016;2023-02-01T12:43:45;98343.97;;;12.27;nan
22311;BME280;11323;49.610;11.016;2023-02-01T12:48:58;98360.91;;;12.23;nan
22311;BME280;11323;49.610;11.016;2023-02-01T12:54:15;98356.16;;;12.36;nan
22311;BME280;11323;49.610;11.016;2023-02-01T12:59:25;98336.03;;;12.55;nan
22311;BME280;11323;49.610;11.016;2023-02-01T13:04:37;98334.09;;;12.57;nan
22311;BME280;11323;49.610;11.016;2023-02-01T13:09:49;98329.41;;;12.69;nan
22311;BME280;11323;49.610;11.016;2023-02-01T13:20:21;98316.69;;;13.00;nan
22311;BME280;11323;49.610;11.016;2023-02-01T13:25:32;98329.69;;;13.10;nan
22311;BME280;11323;49.610;11.016;2023-02-01T13:30:58;98329.69;;;13.10;nan
22311;BME280;11323;49.610;11.016;2023-02-01T13:41:27;98316.13;;;13.15;nan
22311;BME280;11323;49.610;11.016;2023-02-01T13:46:29;98322.06;;;13.25;nan
22311;BME280;11323;49.610;11.016;2023-02-01T13:51:41;98310.75;;;13.24;nan
22311;BME280;11323;49.610;11.016;2023-02-01T13:56:43;98302.38;;;13.12;nan
22311;BME280;11323;49.610;11.016;2023-02-01T14:01:43;98313.13;;;13.09;nan
22311;BME280;11323;49.610;11.016;2023-02-01T14:06:44;98315.78;;;13.18;nan
22311;BME280;11323;49.610;11.016;2023-02-01T14:11:50;98296.69;;;13.25;nan
22311;BME280;11323;49.610;11.016;2023-02-01T14:21:56;98302.03;;;13.42;nan
22311;BME280;11323;49.610;11.016;2023-02-01T14:27:01;98301.88;;;13.43;nan
22311;BME280;11323;49.610;11.016;2023-02-01T14:32:19;98303.00;;;13.41;nan
22311;BME280;11323;49.610;11.016;2023-02-01T14:42:29;98297.78;;;13.49;nan
22311;BME280;11323;49.610;11.016;2023-02-01T14:47:32;98297.31;;;13.54;nan
22311;BME280;11323;49.610;11.016;2023-02-01T14:52:36;98303.53;;;13.53;nan
22311;BME280;11323;49.610;11.016;2023-02-01T14:57:44;98289.47;;;13.54;nan
22311;BME280;11323;49.610;11.016;2023-02-01T15:02:48;98293.88;;;13.53;nan
22311;BME280;11323;49.610;11.016;2023-02-01T15:07:52;98293.09;;;13.61;nan
22311;BME280;11323;49.610;11.016;2023-02-01T15:12:53;98287.88;;;13.69;nan
22311;BME280;11323;49.610;11.016;2023-02-01T15:17:56;98275.75;;;13.68;nan
22311;BME280;11323;49.610;11.016;2023-02-01T15:22:58;98272.16;;;13.69;nan
22311;BME280;11323;49.610;11.016;2023-02-01T15:27:59;98259.38;;;13.66;nan
22311;BME280;11323;49.610;11.016;2023-02-01T15:33:15;98253.66;;;13.71;nan
22311;BME280;11323;49.610;11.016;2023-02-01T15:43:32;98251.38;;;13.76;nan
22311;BME280;11323;49.610;11.016;2023-02-01T15:48:37;98260.69;;;13.70;nan
22311;BME280;11323;49.610;11.016;2023-02-01T15:53:44;98252.19;;;13.77;nan
22311;BME280;11323;49.610;11.016;2023-02-01T15:58:49;98254.78;;;13.68;nan
22311;BME280;11323;49.610;11.016;2023-02-01T16:04:24;98267.41;;;13.73;nan
22311;BME280;11323;49.610;11.016;2023-02-01T16:09:25;98263.97;;;13.72;nan
22311;BME280;11323;49.610;11.016;2023-02-01T16:14:35;98255.63;;;13.77;nan
22311;BME280;11323;49.610;11.016;2023-02-01T16:19:35;98253.66;;;13.79;nan
22311;BME280;11323;49.610;11.016;2023-02-01T16:24:36;98259.06;;;13.78;nan
22311;BME280;11323;49.610;11.016;2023-02-01T16:29:36;98263.00;;;13.82;nan
22311;BME280;11323;49.610;11.016;2023-02-01T16:34:36;98260.38;;;13.90;nan
22311;BME280;11323;49.610;11.016;2023-02-01T16:39:37;98268.59;;;13.95;nan
22311;BME280;11323;49.610;11.016;2023-02-01T16:44:38;98259.91;;;13.95;nan
22311;BME280;11323;49.610;11.016;2023-02-01T16:49:40;98255.50;;;14.03;nan
22311;BME280;11323;49.610;11.016;2023-02-01T16:54:41;98263.03;;;14.07;nan
22311;BME280;11323;49.610;11.016;2023-02-01T16:59:42;98252.56;;;14.07;nan
22311;BME280;11323;49.610;11.016;2023-02-01T17:04:44;98242.38;;;14.03;nan
22311;BME280;11323;49.610;11.016;2023-02-01T17:09:46;98247.75;;;14.43;nan
22311;BME280;11323;49.610;11.016;2023-02-01T17:14:46;98256.78;;;14.49;nan
22311;BME280;11323;49.610;11.016;2023-02-01T17:19:50;98254.78;;;14.43;nan
22311;BME280;11323;49.610;11.016;2023-02-01T17:24:52;98257.41;;;14.43;nan
22311;BME280;11323;49.610;11.016;2023-02-01T17:29:52;98252.22;;;14.26;nan
22311;BME280;11323;49.610;11.016;2023-02-01T17:34:54;98269.91;;;14.41;nan
22311;BME280;11323;49.610;11.016;2023-02-01T17:39:54;98266.09;;;14.51;nan
22311;BME280;11323;49.610;11.016;2023-02-01T17:44:57;98273.63;;;14.63;nan
22311;BME280;11323;49.610;11.016;2023-02-01T17:49:59;98289.50;;;14.86;nan
22311;BME280;11323;49.610;11.016;2023-02-01T17:54:59;98287.84;;;14.93;nan
22311;BME280;11323;49.610;11.016;2023-02-01T18:00:00;98272.41;;;14.98;nan
22311;BME280;11323;49.610;11.016;2023-02-01T18:05:00;98279.91;;;15.10;nan
22311;BME280;11323;49.610;11.016;2023-02-01T18:10:00;98297.38;;;14.94;nan
22311;BME280;11323;49.610;11.016;2023-02-01T18:15:01;98273.16;;;14.67;nan
22311;BME280;11323;49.610;11.016;2023-02-01T18:20:01;98269.19;;;14.55;nan
22311;BME280;11323;49.610;11.016;2023-02-01T18:25:12;98265.75;;;14.63;nan
22311;BME280;11323;49.610;11.016;2023-02-01T18:30:16;98270.50;;;14.76;nan
22311;BME280;11323;49.610;11.016;2023-02-01T18:35:24;98269.00;;;14.90;nan
22311;BME280;11323;49.610;11.016;2023-02-01T18:40:29;98274.41;;;14.96;nan
22311;BME280;11323;49.610;11.016;2023-02-01T18:45:37;98273.53;;;15.04;nan
22311;BME280;11323;49.610;11.016;2023-02-01T18:50:40;98264.72;;;14.97;nan
22311;BME280;11323;49.610;11.016;2023-02-01T18:55:40;98261.66;;;14.85;nan
22311;BME280;11323;49.610;11.016;2023-02-01T19:00:41;98268.22;;;14.73;nan
22311;BME280;11323;49.610;11.016;2023-02-01T19:05:42;98262.31;;;14.62;nan
22311;BME280;11323;49.610;11.016;2023-02-01T19:10:43;98263.97;;;14.63;nan
22311;BME280;11323;49.610;11.016;2023-02-01T19:15:43;98278.06;;;14.62;nan
22311;BME280;11323;49.610;11.016;2023-02-01T19:20:44;98271.84;;;14.63;nan
22311;BME280;11323;49.610;11.016;2023-02-01T19:25:47;98279.69;;;14.63;nan
22311;BME280;11323;49.610;11.016;2023-02-01T19:30:47;98256.44;;;14.69;nan
22311;BME280;11323;49.610;11.016;2023-02-01T19:35:48;98272.78;;;14.79;nan
22311;BME280;11323;49.610;11.016;2023-02-01T19:40:48;98254.13;;;14.74;nan
22311;BME280;11323;49.610;11.016;2023-02-01T19:45:49;98250.03;;;14.71;nan
22311;BME280;11323;49.610;11.016;2023-02-01T19:50:49;98246.91;;;14.67;nan
22311;BME280;11323;49.610;11.016;2023-02-01T19:55:49;98246.22;;;14.65;nan
22311;BME280;11323;49.610;11.016;2023-02-01T20:00:54;98239.69;;;14.61;nan
22311;BME280;11323;49.610;11.016;2023-02-01T20:05:56;98244.94;;;14.53;nan
22311;BME280;11323;49.610;11.016;2023-02-01T20:10:56;98244.78;;;14.55;nan
22311;BME280;11323;49.610;11.016;2023-02-01T20:15:58;98242.69;;;14.50;nan
22311;BME280;11323;49.610;11.016;2023-02-01T20:20:59;98252.50;;;14.48;nan
22311;BME280;11323;49.610;11.016;2023-02-01T20:26:01;98240.41;;;14.39;nan
22311;BME280;11323;49.610;11.016;2023-02-01T20:31:01;98241.88;;;14.33;nan
22311;BME280;11323;49.610;11.016;2023-02-01T20:36:03;98248.13;;;14.24;nan
22311;BME280;11323;49.610;11.016;2023-02-01T20:41:05;98262.22;;;14.23;nan
22311;BME280;11323;49.610;11.016;2023-02-01T20:46:06;98276.78;;;14.33;nan
22311;BME280;11323;49.610;11.016;2023-02-01T20:51:09;98275.75;;;13.77;nan
22311;BME280;11323;49.610;11.016;2023-02-01T20:56:11;98285.84;;;13.47;nan
22311;BME280;11323;49.610;11.016;2023-02-01T21:01:12;98294.84;;;13.44;nan
22311;BME280;11323;49.610;11.016;2023-02-01T21:06:13;98289.88;;;13.33;nan
22311;BME280;11323;49.610;11.016;2023-02-01T21:11:13;98287.19;;;13.24;nan
22311;BME280;11323;49.610;11.016;2023-02-01T21:16:16;98297.81;;;13.15;nan
22311;BME280;11323;49.610;11.016;2023-02-01T21:21:18;98297.44;;;13.09;nan
22311;BME280;11323;49.610;11.016;2023-02-01T21:26:21;98306.72;;;13.04;nan
22311;BME280;11323;49.610;11.016;2023-02-01T21:31:22;98313.56;;;12.96;nan
22311;BME280;11323;49.610;11.016;2023-02-01T21:36:24;98321.88;;;12.92;nan
22311;BME280;11323;49.610;11.016;2023-02-01T21:41:25;98301.22;;;12.80;nan
22311;BME280;11323;49.610;11.016;2023-02-01T21:46:44;98297.94;;;12.78;nan
22311;BME280;11323;49.610;11.016;2023-02-01T21:51:44;98302.81;;;12.73;nan
22311;BME280;11323;49.610;11.016;2023-02-01T21:56:45;98283.19;;;12.69;nan
22311;BME280;11323;49.610;11.016;2023-02-01T22:01:45;98282.31;;;12.60;nan
22311;BME280;11323;49.610;11.016;2023-02-01T22:06:46;98278.22;;;12.58;nan
22311;BME280;11323;49.610;11.016;2023-02-01T22:11:48;98277.16;;;12.50;nan
22311;BME280;11323;49.610;11.016;2023-02-01T22:16:49;98283.00;;;12.44;nan
22311;BME280;11323;49.610;11.016;2023-02-01T22:21:49;98264.88;;;12.43;nan
22311;BME280;11323;49.610;11.016;2023-02-01T22:26:50;98264.66;;;12.36;nan
22311;BME280;11323;49.610;11.016;2023-02-01T22:31:50;98256.16;;;12.34;nan
22311;BME280;11323;49.610;11.016;2023-02-01T22:36:50;98246.28;;;12.28;nan
22311;BME280;11323;49.610;11.016;2023-02-01T22:41:51;98255.44;;;12.24;nan
22311;BME280;11323;49.610;11.016;2023-02-01T22:46:51;98264.25;;;12.23;nan
22311;BME280;11323;49.610;11.016;2023-02-01T22:51:52;98253.88;;;12.13;nan
22311;BME280;11323;49.610;11.016;2023-02-01T22:56:52;98253.06;;;12.12;nan
22311;BME280;11323;49.610;11.016;2023-02-01T23:01:52;98254.47;;;12.07;nan
22311;BME280;11323;49.610;11.016;2023-02-01T23:06:53;98260.97;;;12.02;nan
22311;BME280;11323;49.610;11.016;2023-02-01T23:11:53;98257.53;;;12.02;nan
22311;BME280;11323;49.610;11.016;2023-02-01T23:16:54;98256.03;;;11.99;nan
22311;BME280;11323;49.610;11.016;2023-02-01T23:21:54;98258.09;;;11.96;nan
22311;BME280;11323;49.610;11.016;2023-02-01T23:26:55;98247.97;;;11.93;nan
22311;BME280;11323;49.610;11.016;2023-02-01T23:31:55;98262.00;;;11.92;nan
22311;BME280;11323;49.610;11.016;2023-02-01T23:36:55;98245.66;;;11.89;nan
22311;BME280;11323;49.610;11.016;2023-02-01T23:41:56;98263.09;;;11.89;nan
22311;BME280;11323;49.610;11.016;2023-02-01T23:46:57;98256.69;;;11.83;nan
22311;BME280;11323;49.610;11.016;2023-02-01T23:51:57;98297.50;;;11.84;nan
22311;BME280;11323;49.610;11.016;2023-02-01T23:56:58;98307.25;;;11.82;nan
